sensor_id;sensor_type;location;lat;lon;timestamp;temperature;humidity
41678;DHT22;27364;49.026;8.712;2023-07-31T00:00:25;17.40;99.90
41678;DHT22;27364;49.026;8.712;2023-07-31T00:02:52;17.40;99.90
41678;DHT22;27364;49.026;8.712;2023-07-31T00:05:18;17.40;99.90
41678;DHT22;27364;49.026;8.712;2023-07-31T00:07:43;17.40;99.90
41678;DHT22;27364;49.026;8.712;2023-07-31T00:10:09;17.30;99.90
41678;DHT22;27364;49.026;8.712;2023-07-31T00:12:35;17.30;99.90
41678;DHT22;27364;49.026;8.712;2023-07-31T00:15:01;17.20;99.90
41678;DHT22;27364;49.026;8.712;2023-07-31T00:17:27;17.20;99.90
41678;DHT22;27364;49.026;8.712;2023-07-31T00:19:53;17.10;99.90
41678;DHT22;27364;49.026;8.712;2023-07-31T00:22:18;17.10;99.90
41678;DHT22;27364;49.026;8.712;2023-07-31T00:24:44;17.10;99.90
41678;DHT22;27364;49.026;8.712;2023-07-31T00:27:09;17.00;99.90
41678;DHT22;27364;49.026;8.712;2023-07-31T00:29:35;17.00;99.90
41678;DHT22;27364;49.026;8.712;2023-07-31T00:32:01;17.00;99.90
41678;DHT22;27364;49.026;8.712;2023-07-31T00:34:26;16.90;99.90
41678;DHT22;27364;49.026;8.712;2023-07-31T00:36:52;16.90;99.90
41678;DHT22;27364;49.026;8.712;2023-07-31T00:39:17;17.00;99.90
41678;DHT22;27364;49.026;8.712;2023-07-31T00:41:43;17.00;99.90
41678;DHT22;27364;49.026;8.712;2023-07-31T00:44:08;17.00;99.90
41678;DHT22;27364;49.026;8.712;2023-07-31T00:46:34;17.00;99.90
41678;DHT22;27364;49.026;8.712;2023-07-31T00:48:59;17.00;99.90
41678;DHT22;27364;49.026;8.712;2023-07-31T00:51:25;16.90;99.90
41678;DHT22;27364;49.026;8.712;2023-07-31T00:53:51;16.80;99.90
41678;DHT22;27364;49.026;8.712;2023-07-31T00:56:19;16.70;99.90
41678;DHT22;27364;49.026;8.712;2023-07-31T00:58:45;16.70;99.90
41678;DHT22;27364;49.026;8.712;2023-07-31T01:01:10;16.60;99.90
41678;DHT22;27364;49.026;8.712;2023-07-31T01:03:36;16.60;99.90
41678;DHT22;27364;49.026;8.712;2023-07-31T01:12:01;16.50;99.90
41678;DHT22;27364;49.026;8.712;2023-07-31T01:14:28;16.60;99.90
41678;DHT22;27364;49.026;8.712;2023-07-31T01:16:54;16.40;99.90
41678;DHT22;27364;49.026;8.712;2023-07-31T01:19:23;16.40;99.90
41678;DHT22;27364;49.026;8.712;2023-07-31T01:24:50;16.50;99.90
41678;DHT22;27364;49.026;8.712;2023-07-31T01:27:28;16.70;99.90
41678;DHT22;27364;49.026;8.712;2023-07-31T01:30:16;16.70;99.90
41678;DHT22;27364;49.026;8.712;2023-07-31T01:32:47;16.60;99.90
41678;DHT22;27364;49.026;8.712;2023-07-31T01:35:13;16.70;99.90
41678;DHT22;27364;49.026;8.712;2023-07-31T01:37:39;16.70;99.90
41678;DHT22;27364;49.026;8.712;2023-07-31T01:40:05;16.80;99.90
41678;DHT22;27364;49.026;8.712;2023-07-31T01:42:31;16.70;99.90
41678;DHT22;27364;49.026;8.712;2023-07-31T01:44:57;16.80;99.90
41678;DHT22;27364;49.026;8.712;2023-07-31T01:47:22;16.80;99.90
41678;DHT22;27364;49.026;8.712;2023-07-31T01:49:49;16.90;99.90
41678;DHT22;27364;49.026;8.712;2023-07-31T01:52:14;16.90;99.90
41678;DHT22;27364;49.026;8.712;2023-07-31T01:54:40;16.90;99.90
41678;DHT22;27364;49.026;8.712;2023-07-31T01:57:06;17.00;99.90
41678;DHT22;27364;49.026;8.712;2023-07-31T01:59:31;17.10;99.90
41678;DHT22;27364;49.026;8.712;2023-07-31T02:01:57;17.10;99.90
41678;DHT22;27364;49.026;8.712;2023-07-31T02:04:22;17.10;99.90
41678;DHT22;27364;49.026;8.712;2023-07-31T02:06:48;17.10;99.90
41678;DHT22;27364;49.026;8.712;2023-07-31T02:09:13;17.20;99.90
41678;DHT22;27364;49.026;8.712;2023-07-31T02:11:39;17.20;99.90
41678;DHT22;27364;49.026;8.712;2023-07-31T02:14:04;17.10;99.90
41678;DHT22;27364;49.026;8.712;2023-07-31T02:16:30;17.20;99.90
41678;DHT22;27364;49.026;8.712;2023-07-31T02:18:56;17.10;99.90
41678;DHT22;27364;49.026;8.712;2023-07-31T02:21:21;17.10;99.90
41678;DHT22;27364;49.026;8.712;2023-07-31T02:23:47;17.10;99.90
41678;DHT22;27364;49.026;8.712;2023-07-31T02:26:13;17.10;99.90
41678;DHT22;27364;49.026;8.712;2023-07-31T02:28:38;17.00;99.90
41678;DHT22;27364;49.026;8.712;2023-07-31T02:31:04;17.00;99.90
41678;DHT22;27364;49.026;8.712;2023-07-31T02:33:29;16.90;99.90
41678;DHT22;27364;49.026;8.712;2023-07-31T02:35:55;16.90;99.90
41678;DHT22;27364;49.026;8.712;2023-07-31T02:38:21;16.90;99.90
41678;DHT22;27364;49.026;8.712;2023-07-31T02:40:46;16.90;99.90
41678;DHT22;27364;49.026;8.712;2023-07-31T02:43:13;16.80;99.90
41678;DHT22;27364;49.026;8.712;2023-07-31T02:45:38;16.80;99.90
41678;DHT22;27364;49.026;8.712;2023-07-31T02:48:04;16.80;99.90
41678;DHT22;27364;49.026;8.712;2023-07-31T02:50:30;16.80;99.90
41678;DHT22;27364;49.026;8.712;2023-07-31T02:52:55;16.80;99.90
41678;DHT22;27364;49.026;8.712;2023-07-31T02:55:21;16.80;99.90
41678;DHT22;27364;49.026;8.712;2023-07-31T02:57:47;16.80;99.90
41678;DHT22;27364;49.026;8.712;2023-07-31T03:00:12;16.80;99.90
41678;DHT22;27364;49.026;8.712;2023-07-31T03:02:38;16.80;99.90
41678;DHT22;27364;49.026;8.712;2023-07-31T03:05:04;16.80;99.90
41678;DHT22;27364;49.026;8.712;2023-07-31T03:07:29;16.80;99.90
41678;DHT22;27364;49.026;8.712;2023-07-31T03:09:56;16.70;99.90
41678;DHT22;27364;49.026;8.712;2023-07-31T03:12:22;16.70;99.90
41678;DHT22;27364;49.026;8.712;2023-07-31T03:14:47;16.70;99.90
41678;DHT22;27364;49.026;8.712;2023-07-31T03:17:13;16.60;99.90
41678;DHT22;27364;49.026;8.712;2023-07-31T03:19:38;16.60;99.90
41678;DHT22;27364;49.026;8.712;2023-07-31T03:22:04;16.50;99.90
41678;DHT22;27364;49.026;8.712;2023-07-31T03:24:30;16.50;99.90
41678;DHT22;27364;49.026;8.712;2023-07-31T03:26:55;16.40;99.90
41678;DHT22;27364;49.026;8.712;2023-07-31T03:29:21;16.50;99.90
41678;DHT22;27364;49.026;8.712;2023-07-31T03:31:46;16.50;99.90
41678;DHT22;27364;49.026;8.712;2023-07-31T03:34:12;16.50;99.90
41678;DHT22;27364;49.026;8.712;2023-07-31T03:36:37;16.40;99.90
41678;DHT22;27364;49.026;8.712;2023-07-31T03:39:03;16.50;99.90
41678;DHT22;27364;49.026;8.712;2023-07-31T03:41:29;16.50;99.90
41678;DHT22;27364;49.026;8.712;2023-07-31T03:43:54;16.50;99.90
41678;DHT22;27364;49.026;8.712;2023-07-31T03:46:24;16.40;99.90
41678;DHT22;27364;49.026;8.712;2023-07-31T03:48:49;16.40;99.90
41678;DHT22;27364;49.026;8.712;2023-07-31T03:51:15;16.40;99.90
41678;DHT22;27364;49.026;8.712;2023-07-31T03:53:40;16.30;99.90
41678;DHT22;27364;49.026;8.712;2023-07-31T03:56:06;16.40;99.90
41678;DHT22;27364;49.026;8.712;2023-07-31T03:58:32;16.30;99.90
41678;DHT22;27364;49.026;8.712;2023-07-31T04:00:57;16.40;99.90
41678;DHT22;27364;49.026;8.712;2023-07-31T04:03:23;16.40;99.90
41678;DHT22;27364;49.026;8.712;2023-07-31T04:05:48;16.30;99.90
41678;DHT22;27364;49.026;8.712;2023-07-31T04:08:14;16.30;99.90
41678;DHT22;27364;49.026;8.712;2023-07-31T04:10:39;16.30;99.90
41678;DHT22;27364;49.026;8.712;2023-07-31T04:13:05;16.30;99.90
41678;DHT22;27364;49.026;8.712;2023-07-31T04:15:30;16.30;99.90
41678;DHT22;27364;49.026;8.712;2023-07-31T04:17:56;16.30;99.90
41678;DHT22;27364;49.026;8.712;2023-07-31T04:20:21;16.30;99.90
41678;DHT22;27364;49.026;8.712;2023-07-31T04:22:47;16.30;99.90
41678;DHT22;27364;49.026;8.712;2023-07-31T04:25:13;16.30;99.90
41678;DHT22;27364;49.026;8.712;2023-07-31T04:27:39;16.30;99.90
41678;DHT22;27364;49.026;8.712;2023-07-31T04:30:06;16.20;99.90
41678;DHT22;27364;49.026;8.712;2023-07-31T04:32:31;16.20;99.90
41678;DHT22;27364;49.026;8.712;2023-07-31T04:34:57;16.30;99.90
41678;DHT22;27364;49.026;8.712;2023-07-31T04:37:22;16.30;99.90
41678;DHT22;27364;49.026;8.712;2023-07-31T04:39:48;16.30;99.90
41678;DHT22;27364;49.026;8.712;2023-07-31T04:42:13;16.30;99.90
41678;DHT22;27364;49.026;8.712;2023-07-31T04:44:39;16.40;99.90
41678;DHT22;27364;49.026;8.712;2023-07-31T04:47:05;16.30;99.90
41678;DHT22;27364;49.026;8.712;2023-07-31T04:49:31;16.40;99.90
41678;DHT22;27364;49.026;8.712;2023-07-31T04:51:57;16.40;99.90
41678;DHT22;27364;49.026;8.712;2023-07-31T04:54:23;16.40;99.90
41678;DHT22;27364;49.026;8.712;2023-07-31T04:56:48;16.40;99.90
41678;DHT22;27364;49.026;8.712;2023-07-31T04:59:14;16.40;99.90
41678;DHT22;27364;49.026;8.712;2023-07-31T05:01:39;16.40;99.90
41678;DHT22;27364;49.026;8.712;2023-07-31T05:04:05;16.40;99.90
41678;DHT22;27364;49.026;8.712;2023-07-31T05:06:30;16.50;99.90
41678;DHT22;27364;49.026;8.712;2023-07-31T05:08:56;16.50;99.90
41678;DHT22;27364;49.026;8.712;2023-07-31T05:11:22;16.50;99.90
41678;DHT22;27364;49.026;8.712;2023-07-31T05:13:47;16.50;99.90
41678;DHT22;27364;49.026;8.712;2023-07-31T05:16:13;16.50;99.90
41678;DHT22;27364;49.026;8.712;2023-07-31T05:18:38;16.50;99.90
41678;DHT22;27364;49.026;8.712;2023-07-31T05:21:04;16.40;99.90
41678;DHT22;27364;49.026;8.712;2023-07-31T05:23:29;16.50;99.90
41678;DHT22;27364;49.026;8.712;2023-07-31T05:26:03;16.50;99.90
41678;DHT22;27364;49.026;8.712;2023-07-31T05:28:29;16.50;99.90
41678;DHT22;27364;49.026;8.712;2023-07-31T05:30:59;16.50;99.90
41678;DHT22;27364;49.026;8.712;2023-07-31T05:33:25;16.50;99.90
41678;DHT22;27364;49.026;8.712;2023-07-31T05:35:50;16.60;99.90
41678;DHT22;27364;49.026;8.712;2023-07-31T05:38:16;16.60;99.90
41678;DHT22;27364;49.026;8.712;2023-07-31T05:40:42;16.60;99.90
41678;DHT22;27364;49.026;8.712;2023-07-31T05:43:08;16.70;99.90
41678;DHT22;27364;49.026;8.712;2023-07-31T05:45:35;16.70;99.90
41678;DHT22;27364;49.026;8.712;2023-07-31T05:48:00;16.80;99.90
41678;DHT22;27364;49.026;8.712;2023-07-31T05:50:26;16.80;99.90
41678;DHT22;27364;49.026;8.712;2023-07-31T05:52:51;16.90;99.90
41678;DHT22;27364;49.026;8.712;2023-07-31T05:55:17;16.90;99.90
41678;DHT22;27364;49.026;8.712;2023-07-31T05:57:43;16.90;99.90
41678;DHT22;27364;49.026;8.712;2023-07-31T06:00:11;17.00;99.90
41678;DHT22;27364;49.026;8.712;2023-07-31T06:02:37;17.00;99.90
41678;DHT22;27364;49.026;8.712;2023-07-31T06:05:04;17.10;99.90
41678;DHT22;27364;49.026;8.712;2023-07-31T06:07:31;17.20;99.90
41678;DHT22;27364;49.026;8.712;2023-07-31T06:09:57;17.20;99.90
41678;DHT22;27364;49.026;8.712;2023-07-31T06:12:27;17.20;99.90
41678;DHT22;27364;49.026;8.712;2023-07-31T06:14:53;17.20;99.90
41678;DHT22;27364;49.026;8.712;2023-07-31T06:17:18;17.30;99.90
41678;DHT22;27364;49.026;8.712;2023-07-31T06:19:44;17.30;99.90
41678;DHT22;27364;49.026;8.712;2023-07-31T06:22:09;17.30;99.90
41678;DHT22;27364;49.026;8.712;2023-07-31T06:24:35;17.40;99.90
41678;DHT22;27364;49.026;8.712;2023-07-31T06:27:00;17.40;99.90
41678;DHT22;27364;49.026;8.712;2023-07-31T06:29:28;17.50;99.90
41678;DHT22;27364;49.026;8.712;2023-07-31T06:31:55;17.50;99.90
41678;DHT22;27364;49.026;8.712;2023-07-31T06:34:21;17.50;99.90
41678;DHT22;27364;49.026;8.712;2023-07-31T06:36:47;17.60;99.90
41678;DHT22;27364;49.026;8.712;2023-07-31T06:39:12;17.70;99.90
41678;DHT22;27364;49.026;8.712;2023-07-31T06:41:38;17.70;99.90
41678;DHT22;27364;49.026;8.712;2023-07-31T06:44:04;17.80;99.90
41678;DHT22;27364;49.026;8.712;2023-07-31T06:46:30;17.90;99.90
41678;DHT22;27364;49.026;8.712;2023-07-31T06:48:55;17.90;99.90
41678;DHT22;27364;49.026;8.712;2023-07-31T06:51:21;18.00;99.90
41678;DHT22;27364;49.026;8.712;2023-07-31T06:53:47;18.00;99.90
41678;DHT22;27364;49.026;8.712;2023-07-31T06:56:12;18.10;99.90
41678;DHT22;27364;49.026;8.712;2023-07-31T06:58:38;18.20;99.90
41678;DHT22;27364;49.026;8.712;2023-07-31T07:01:04;18.20;99.90
41678;DHT22;27364;49.026;8.712;2023-07-31T07:03:29;18.30;99.90
41678;DHT22;27364;49.026;8.712;2023-07-31T07:05:55;18.40;99.90
41678;DHT22;27364;49.026;8.712;2023-07-31T07:08:20;18.50;99.90
41678;DHT22;27364;49.026;8.712;2023-07-31T07:10:46;18.50;99.90
41678;DHT22;27364;49.026;8.712;2023-07-31T07:13:12;18.70;99.90
41678;DHT22;27364;49.026;8.712;2023-07-31T07:15:38;18.60;99.90
41678;DHT22;27364;49.026;8.712;2023-07-31T07:18:04;18.70;99.90
41678;DHT22;27364;49.026;8.712;2023-07-31T07:20:30;18.70;99.90
41678;DHT22;27364;49.026;8.712;2023-07-31T07:22:56;18.60;99.90
41678;DHT22;27364;49.026;8.712;2023-07-31T07:25:21;18.60;99.90
41678;DHT22;27364;49.026;8.712;2023-07-31T07:27:47;18.70;99.90
41678;DHT22;27364;49.026;8.712;2023-07-31T07:30:12;18.80;99.90
41678;DHT22;27364;49.026;8.712;2023-07-31T07:32:39;18.90;99.90
41678;DHT22;27364;49.026;8.712;2023-07-31T07:35:06;19.00;99.90
41678;DHT22;27364;49.026;8.712;2023-07-31T07:37:31;18.90;99.90
41678;DHT22;27364;49.026;8.712;2023-07-31T07:39:57;19.00;99.90
41678;DHT22;27364;49.026;8.712;2023-07-31T07:42:23;19.00;99.90
41678;DHT22;27364;49.026;8.712;2023-07-31T07:44:48;19.00;99.90
41678;DHT22;27364;49.026;8.712;2023-07-31T07:47:14;19.00;99.90
41678;DHT22;27364;49.026;8.712;2023-07-31T07:49:40;19.10;99.90
41678;DHT22;27364;49.026;8.712;2023-07-31T07:52:06;19.20;99.90
41678;DHT22;27364;49.026;8.712;2023-07-31T07:54:31;19.30;99.90
41678;DHT22;27364;49.026;8.712;2023-07-31T07:56:57;19.30;99.90
41678;DHT22;27364;49.026;8.712;2023-07-31T07:59:23;19.20;99.90
41678;DHT22;27364;49.026;8.712;2023-07-31T08:01:48;19.30;99.90
41678;DHT22;27364;49.026;8.712;2023-07-31T08:04:14;19.30;99.90
41678;DHT22;27364;49.026;8.712;2023-07-31T08:06:40;19.30;99.90
41678;DHT22;27364;49.026;8.712;2023-07-31T08:09:05;19.50;99.90
41678;DHT22;27364;49.026;8.712;2023-07-31T08:11:32;19.50;99.90
41678;DHT22;27364;49.026;8.712;2023-07-31T08:13:57;19.50;99.90
41678;DHT22;27364;49.026;8.712;2023-07-31T08:16:23;19.50;99.90
41678;DHT22;27364;49.026;8.712;2023-07-31T08:18:49;19.50;99.90
41678;DHT22;27364;49.026;8.712;2023-07-31T08:21:14;19.50;99.90
41678;DHT22;27364;49.026;8.712;2023-07-31T08:23:40;19.50;99.90
41678;DHT22;27364;49.026;8.712;2023-07-31T08:26:06;19.50;99.90
41678;DHT22;27364;49.026;8.712;2023-07-31T08:28:32;19.40;99.90
41678;DHT22;27364;49.026;8.712;2023-07-31T08:30:57;19.40;99.90
41678;DHT22;27364;49.026;8.712;2023-07-31T08:33:23;19.50;99.90
41678;DHT22;27364;49.026;8.712;2023-07-31T08:35:49;19.50;99.90
41678;DHT22;27364;49.026;8.712;2023-07-31T08:38:14;19.50;99.90
41678;DHT22;27364;49.026;8.712;2023-07-31T08:40:40;19.80;99.90
41678;DHT22;27364;49.026;8.712;2023-07-31T08:43:07;19.80;99.90
41678;DHT22;27364;49.026;8.712;2023-07-31T08:45:33;19.80;99.90
41678;DHT22;27364;49.026;8.712;2023-07-31T08:47:59;19.70;99.90
41678;DHT22;27364;49.026;8.712;2023-07-31T08:50:25;19.70;99.90
41678;DHT22;27364;49.026;8.712;2023-07-31T08:52:52;19.70;99.90
41678;DHT22;27364;49.026;8.712;2023-07-31T08:55:18;19.70;99.90
41678;DHT22;27364;49.026;8.712;2023-07-31T08:57:51;19.70;99.90
41678;DHT22;27364;49.026;8.712;2023-07-31T09:00:18;19.80;99.90
41678;DHT22;27364;49.026;8.712;2023-07-31T09:05:14;20.00;99.90
41678;DHT22;27364;49.026;8.712;2023-07-31T09:07:43;20.00;99.90
41678;DHT22;27364;49.026;8.712;2023-07-31T09:10:11;20.30;99.90
41678;DHT22;27364;49.026;8.712;2023-07-31T09:12:38;20.20;99.90
41678;DHT22;27364;49.026;8.712;2023-07-31T09:15:04;20.20;99.90
41678;DHT22;27364;49.026;8.712;2023-07-31T09:17:30;20.20;99.90
41678;DHT22;27364;49.026;8.712;2023-07-31T09:19:56;20.20;99.90
41678;DHT22;27364;49.026;8.712;2023-07-31T09:22:33;20.30;99.90
41678;DHT22;27364;49.026;8.712;2023-07-31T09:30:16;20.90;99.90
41678;DHT22;27364;49.026;8.712;2023-07-31T09:32:46;20.90;99.90
41678;DHT22;27364;49.026;8.712;2023-07-31T09:35:29;21.30;99.90
41678;DHT22;27364;49.026;8.712;2023-07-31T09:38:03;21.40;99.90
41678;DHT22;27364;49.026;8.712;2023-07-31T09:43:03;21.30;99.90
41678;DHT22;27364;49.026;8.712;2023-07-31T09:45:34;21.30;99.90
41678;DHT22;27364;49.026;8.712;2023-07-31T09:48:01;21.30;99.90
41678;DHT22;27364;49.026;8.712;2023-07-31T09:50:28;21.30;99.90
41678;DHT22;27364;49.026;8.712;2023-07-31T09:52:54;21.50;99.90
41678;DHT22;27364;49.026;8.712;2023-07-31T09:55:19;21.40;99.90
41678;DHT22;27364;49.026;8.712;2023-07-31T09:57:49;21.30;99.90
41678;DHT22;27364;49.026;8.712;2023-07-31T10:00:16;21.10;99.90
41678;DHT22;27364;49.026;8.712;2023-07-31T10:02:44;21.00;99.90
41678;DHT22;27364;49.026;8.712;2023-07-31T10:05:15;21.00;99.90
41678;DHT22;27364;49.026;8.712;2023-07-31T10:07:53;21.00;99.90
41678;DHT22;27364;49.026;8.712;2023-07-31T10:10:21;21.10;99.90
41678;DHT22;27364;49.026;8.712;2023-07-31T10:12:48;21.00;99.90
41678;DHT22;27364;49.026;8.712;2023-07-31T10:15:15;21.00;99.90
41678;DHT22;27364;49.026;8.712;2023-07-31T10:17:41;21.00;99.90
41678;DHT22;27364;49.026;8.712;2023-07-31T10:20:07;20.90;99.90
41678;DHT22;27364;49.026;8.712;2023-07-31T10:22:35;20.90;99.90
41678;DHT22;27364;49.026;8.712;2023-07-31T10:25:01;20.90;99.90
41678;DHT22;27364;49.026;8.712;2023-07-31T10:27:27;21.00;99.90
41678;DHT22;27364;49.026;8.712;2023-07-31T10:29:55;21.00;99.90
41678;DHT22;27364;49.026;8.712;2023-07-31T10:32:22;21.10;99.90
41678;DHT22;27364;49.026;8.712;2023-07-31T10:34:51;21.20;99.90
41678;DHT22;27364;49.026;8.712;2023-07-31T10:37:23;21.40;99.90
41678;DHT22;27364;49.026;8.712;2023-07-31T10:39:56;21.40;99.90
41678;DHT22;27364;49.026;8.712;2023-07-31T10:42:32;21.20;99.90
41678;DHT22;27364;49.026;8.712;2023-07-31T10:44:59;21.20;99.90
41678;DHT22;27364;49.026;8.712;2023-07-31T10:47:25;21.10;99.90
41678;DHT22;27364;49.026;8.712;2023-07-31T10:49:50;21.10;99.90
41678;DHT22;27364;49.026;8.712;2023-07-31T10:52:20;21.00;99.90
41678;DHT22;27364;49.026;8.712;2023-07-31T10:57:44;20.90;99.90
41678;DHT22;27364;49.026;8.712;2023-07-31T11:00:21;20.80;99.90
41678;DHT22;27364;49.026;8.712;2023-07-31T11:03:07;20.80;99.90
41678;DHT22;27364;49.026;8.712;2023-07-31T11:06:03;21.00;99.90
41678;DHT22;27364;49.026;8.712;2023-07-31T11:08:33;21.00;99.90
41678;DHT22;27364;49.026;8.712;2023-07-31T11:13:28;21.10;99.90
41678;DHT22;27364;49.026;8.712;2023-07-31T11:15:53;21.30;99.90
41678;DHT22;27364;49.026;8.712;2023-07-31T11:18:19;21.40;99.90
41678;DHT22;27364;49.026;8.712;2023-07-31T11:20:44;21.40;99.90
41678;DHT22;27364;49.026;8.712;2023-07-31T11:23:11;21.60;99.90
41678;DHT22;27364;49.026;8.712;2023-07-31T11:25:38;21.70;99.90
41678;DHT22;27364;49.026;8.712;2023-07-31T11:28:09;21.70;99.90
41678;DHT22;27364;49.026;8.712;2023-07-31T11:30:35;21.70;99.90
41678;DHT22;27364;49.026;8.712;2023-07-31T11:33:02;21.60;99.90
41678;DHT22;27364;49.026;8.712;2023-07-31T11:35:32;21.70;99.90
41678;DHT22;27364;49.026;8.712;2023-07-31T11:37:58;21.70;99.90
41678;DHT22;27364;49.026;8.712;2023-07-31T11:40:24;21.70;99.90
41678;DHT22;27364;49.026;8.712;2023-07-31T11:42:55;22.00;99.90
41678;DHT22;27364;49.026;8.712;2023-07-31T11:45:21;22.20;98.60
41678;DHT22;27364;49.026;8.712;2023-07-31T11:47:49;22.40;99.90
41678;DHT22;27364;49.026;8.712;2023-07-31T11:50:15;22.40;99.10
41678;DHT22;27364;49.026;8.712;2023-07-31T11:52:43;22.30;98.40
41678;DHT22;27364;49.026;8.712;2023-07-31T11:55:10;22.20;97.20
41678;DHT22;27364;49.026;8.712;2023-07-31T11:57:38;22.00;99.40
41678;DHT22;27364;49.026;8.712;2023-07-31T12:00:06;21.90;99.10
41678;DHT22;27364;49.026;8.712;2023-07-31T12:02:33;21.80;99.30
41678;DHT22;27364;49.026;8.712;2023-07-31T12:04:59;21.90;99.90
41678;DHT22;27364;49.026;8.712;2023-07-31T12:07:25;22.10;97.70
41678;DHT22;27364;49.026;8.712;2023-07-31T12:09:54;22.10;96.30
41678;DHT22;27364;49.026;8.712;2023-07-31T12:12:21;22.20;98.80
41678;DHT22;27364;49.026;8.712;2023-07-31T12:14:47;22.30;99.00
41678;DHT22;27364;49.026;8.712;2023-07-31T12:17:14;22.50;98.60
41678;DHT22;27364;49.026;8.712;2023-07-31T12:19:40;22.80;99.60
41678;DHT22;27364;49.026;8.712;2023-07-31T12:22:13;23.00;98.80
41678;DHT22;27364;49.026;8.712;2023-07-31T12:24:40;23.20;97.70
41678;DHT22;27364;49.026;8.712;2023-07-31T12:27:15;23.00;96.80
41678;DHT22;27364;49.026;8.712;2023-07-31T12:29:44;22.60;97.70
41678;DHT22;27364;49.026;8.712;2023-07-31T12:32:23;22.80;96.70
41678;DHT22;27364;49.026;8.712;2023-07-31T12:34:50;23.20;95.90
41678;DHT22;27364;49.026;8.712;2023-07-31T12:37:17;23.40;96.20
41678;DHT22;27364;49.026;8.712;2023-07-31T12:39:42;23.40;95.70
41678;DHT22;27364;49.026;8.712;2023-07-31T12:42:08;23.50;96.80
41678;DHT22;27364;49.026;8.712;2023-07-31T12:44:34;23.60;95.40
41678;DHT22;27364;49.026;8.712;2023-07-31T12:46:59;23.60;94.90
41678;DHT22;27364;49.026;8.712;2023-07-31T12:49:25;23.30;94.80
41678;DHT22;27364;49.026;8.712;2023-07-31T12:51:50;23.10;94.90
41678;DHT22;27364;49.026;8.712;2023-07-31T12:54:16;22.90;94.70
41678;DHT22;27364;49.026;8.712;2023-07-31T12:56:42;22.90;96.80
41678;DHT22;27364;49.026;8.712;2023-07-31T12:59:07;22.70;96.10
41678;DHT22;27364;49.026;8.712;2023-07-31T13:01:33;22.60;97.20
41678;DHT22;27364;49.026;8.712;2023-07-31T13:03:58;22.70;97.90
41678;DHT22;27364;49.026;8.712;2023-07-31T13:06:25;22.60;97.00
41678;DHT22;27364;49.026;8.712;2023-07-31T13:08:51;22.60;95.90
41678;DHT22;27364;49.026;8.712;2023-07-31T13:11:17;22.70;96.20
41678;DHT22;27364;49.026;8.712;2023-07-31T13:13:42;22.60;98.00
41678;DHT22;27364;49.026;8.712;2023-07-31T13:16:08;22.50;97.80
41678;DHT22;27364;49.026;8.712;2023-07-31T13:18:33;22.40;97.30
41678;DHT22;27364;49.026;8.712;2023-07-31T13:20:59;22.30;97.10
41678;DHT22;27364;49.026;8.712;2023-07-31T13:23:25;22.20;97.70
41678;DHT22;27364;49.026;8.712;2023-07-31T13:25:50;22.10;97.40
41678;DHT22;27364;49.026;8.712;2023-07-31T13:28:16;22.20;99.20
41678;DHT22;27364;49.026;8.712;2023-07-31T13:30:41;22.30;98.70
41678;DHT22;27364;49.026;8.712;2023-07-31T13:33:07;22.40;97.70
41678;DHT22;27364;49.026;8.712;2023-07-31T13:35:32;22.30;98.20
41678;DHT22;27364;49.026;8.712;2023-07-31T13:37:58;22.20;98.40
41678;DHT22;27364;49.026;8.712;2023-07-31T13:40:23;22.30;98.40
41678;DHT22;27364;49.026;8.712;2023-07-31T13:42:49;22.30;97.10
41678;DHT22;27364;49.026;8.712;2023-07-31T13:45:15;22.30;97.80
41678;DHT22;27364;49.026;8.712;2023-07-31T13:47:40;22.20;99.00
41678;DHT22;27364;49.026;8.712;2023-07-31T13:50:06;22.20;98.20
41678;DHT22;27364;49.026;8.712;2023-07-31T13:52:32;22.30;96.70
41678;DHT22;27364;49.026;8.712;2023-07-31T13:54:57;22.30;97.20
41678;DHT22;27364;49.026;8.712;2023-07-31T13:57:23;22.30;97.00
41678;DHT22;27364;49.026;8.712;2023-07-31T13:59:49;22.30;98.80
41678;DHT22;27364;49.026;8.712;2023-07-31T14:02:14;22.30;98.30
41678;DHT22;27364;49.026;8.712;2023-07-31T14:04:40;22.30;97.70
41678;DHT22;27364;49.026;8.712;2023-07-31T14:07:06;22.20;98.40
41678;DHT22;27364;49.026;8.712;2023-07-31T14:09:31;22.20;97.90
41678;DHT22;27364;49.026;8.712;2023-07-31T14:11:57;22.20;99.20
41678;DHT22;27364;49.026;8.712;2023-07-31T14:14:23;22.30;98.00
41678;DHT22;27364;49.026;8.712;2023-07-31T14:16:48;22.40;97.10
41678;DHT22;27364;49.026;8.712;2023-07-31T14:19:14;22.30;96.40
41678;DHT22;27364;49.026;8.712;2023-07-31T14:21:39;22.30;98.00
41678;DHT22;27364;49.026;8.712;2023-07-31T14:24:05;22.30;97.30
41678;DHT22;27364;49.026;8.712;2023-07-31T14:26:31;22.20;96.30
41678;DHT22;27364;49.026;8.712;2023-07-31T14:28:56;22.00;98.60
41678;DHT22;27364;49.026;8.712;2023-07-31T14:31:22;22.00;97.80
41678;DHT22;27364;49.026;8.712;2023-07-31T14:33:48;21.90;98.80
41678;DHT22;27364;49.026;8.712;2023-07-31T14:36:13;21.80;99.10
41678;DHT22;27364;49.026;8.712;2023-07-31T14:38:39;21.80;99.20
41678;DHT22;27364;49.026;8.712;2023-07-31T14:41:04;21.60;98.80
41678;DHT22;27364;49.026;8.712;2023-07-31T14:43:30;21.60;98.50
41678;DHT22;27364;49.026;8.712;2023-07-31T14:45:55;21.50;99.80
41678;DHT22;27364;49.026;8.712;2023-07-31T14:48:24;21.60;98.60
41678;DHT22;27364;49.026;8.712;2023-07-31T14:50:50;21.50;99.50
41678;DHT22;27364;49.026;8.712;2023-07-31T14:53:15;21.50;99.90
41678;DHT22;27364;49.026;8.712;2023-07-31T14:55:41;21.50;98.80
41678;DHT22;27364;49.026;8.712;2023-07-31T14:58:06;21.60;98.90
41678;DHT22;27364;49.026;8.712;2023-07-31T15:00:32;21.60;98.80
41678;DHT22;27364;49.026;8.712;2023-07-31T15:02:57;21.60;98.40
41678;DHT22;27364;49.026;8.712;2023-07-31T15:05:23;21.70;98.80
41678;DHT22;27364;49.026;8.712;2023-07-31T15:07:49;21.70;98.70
41678;DHT22;27364;49.026;8.712;2023-07-31T15:10:14;21.80;99.20
41678;DHT22;27364;49.026;8.712;2023-07-31T15:12:41;21.80;99.30
41678;DHT22;27364;49.026;8.712;2023-07-31T15:15:07;21.80;98.80
41678;DHT22;27364;49.026;8.712;2023-07-31T15:17:33;21.80;98.40
41678;DHT22;27364;49.026;8.712;2023-07-31T15:19:59;21.80;99.20
41678;DHT22;27364;49.026;8.712;2023-07-31T15:22:25;21.80;98.60
41678;DHT22;27364;49.026;8.712;2023-07-31T15:24:51;21.80;99.40
41678;DHT22;27364;49.026;8.712;2023-07-31T15:27:17;21.90;99.90
41678;DHT22;27364;49.026;8.712;2023-07-31T15:29:42;21.90;99.90
41678;DHT22;27364;49.026;8.712;2023-07-31T15:32:08;21.90;99.90
41678;DHT22;27364;49.026;8.712;2023-07-31T15:34:34;21.90;99.90
41678;DHT22;27364;49.026;8.712;2023-07-31T15:36:59;22.00;99.90
41678;DHT22;27364;49.026;8.712;2023-07-31T15:39:25;22.00;99.90
41678;DHT22;27364;49.026;8.712;2023-07-31T15:41:51;22.10;99.80
41678;DHT22;27364;49.026;8.712;2023-07-31T15:44:16;22.10;99.90
41678;DHT22;27364;49.026;8.712;2023-07-31T15:46:42;22.20;99.90
41678;DHT22;27364;49.026;8.712;2023-07-31T15:49:07;22.20;99.90